createdAt,value
2019-03-24T01:07:59.761Z,0.00
2019-03-24T01:09:03.640Z,0.00
2019-03-24T02:06:17.707Z,0.00
2019-03-24T02:06:55.980Z,0.00
2019-03-24T02:07:55.918Z,0.00
2019-03-24T02:08:57.475Z,0.00
2019-03-24T04:59:57.589Z,4.00
2019-03-24T05:45:15.523Z,112.00
2019-03-24T05:47:23.011Z,124.00
2019-03-24T05:55:12.012Z,140.00
2019-03-24T05:57:08.772Z,164.00
2019-03-24T05:58:15.323Z,172.00
2019-03-24T06:01:44.762Z,192.00
2019-03-24T06:09:42.997Z,236.00
2019-03-24T06:14:18.905Z,252.00
2019-03-24T06:16:14.212Z,268.00
2019-03-24T06:18:53.023Z,288.00
2019-03-24T06:22:25.421Z,252.00
2019-03-24T06:57:01.054Z,552.00
2019-03-24T07:35:57.178Z,960.00
2019-03-24T07:37:56.440Z,1000.00
2019-03-24T07:38:56.456Z,1024.00
2019-03-24T07:54:57.263Z,1284.00
2019-03-24T10:28:56.619Z,2856.00
2019-03-24T10:29:55.923Z,2868.00
2019-03-24T10:30:56.027Z,2872.00
2019-03-24T10:33:54.106Z,2868.00
2019-03-24T10:36:28.555Z,2828.00
2019-03-24T10:37:28.389Z,2848.00
2019-03-24T10:38:28.233Z,2856.00
2019-03-24T10:42:09.746Z,2840.00
2019-03-24T10:44:00.877Z,2828.00
2019-03-24T10:45:00.801Z,2856.00
2019-03-24T10:46:00.766Z,2832.00
2019-03-24T10:49:01.491Z,2804.00
2019-03-24T10:50:00.313Z,2812.00
2019-03-24T10:51:00.247Z,2804.00
2019-03-24T10:52:00.196Z,2796.00
2019-03-24T10:53:00.017Z,2812.00
2019-03-24T10:53:59.983Z,2764.00
2019-03-24T10:54:59.934Z,2748.00
2019-03-24T10:55:59.936Z,2768.00
2019-03-24T10:56:59.725Z,2760.00
2019-03-24T10:57:59.697Z,2780.00
2019-03-24T10:58:59.626Z,2748.00
2019-03-24T10:59:59.551Z,2700.00
2019-03-24T11:00:59.471Z,2712.00
2019-03-24T11:01:59.344Z,2704.00
2019-03-24T11:02:59.262Z,2732.00
2019-03-24T11:03:59.230Z,2732.00
2019-03-24T11:04:59.208Z,2720.00
2019-03-24T11:05:59.041Z,2728.00
2019-03-24T11:06:58.989Z,2712.00
2019-03-24T11:07:58.937Z,2720.00
2019-03-24T11:08:58.876Z,2716.00
2019-03-24T11:09:58.790Z,2720.00
2019-03-24T11:10:58.678Z,2720.00
2019-03-24T11:11:58.616Z,2676.00
2019-03-24T11:12:58.625Z,2648.00
2019-03-24T11:13:58.546Z,2628.00
2019-03-24T11:14:58.404Z,2624.00
2019-03-24T11:15:59.615Z,2596.00
2019-03-24T11:16:58.328Z,2536.00
2019-03-24T11:17:58.283Z,2600.00
2019-03-24T11:18:58.092Z,2600.00
2019-03-24T11:19:58.070Z,2640.00
2019-03-24T11:20:57.994Z,2640.00
2019-03-24T11:21:57.869Z,2664.00
2019-03-24T11:22:57.787Z,2692.00
2019-03-24T11:23:57.716Z,2616.00
2019-03-24T11:24:57.761Z,2632.00
2019-03-24T11:25:57.567Z,2636.00
2019-03-24T11:26:57.543Z,2652.00
2019-03-24T11:27:57.414Z,2656.00
2019-03-24T11:28:57.341Z,2576.00
2019-03-24T11:29:57.327Z,2624.00
2019-03-24T11:30:57.187Z,2664.00
2019-03-24T11:31:57.175Z,2656.00
2019-03-24T11:32:57.124Z,2648.00
2019-03-24T11:33:57.136Z,2640.00
2019-03-24T11:34:57.013Z,2636.00
2019-03-24T11:35:56.832Z,2616.00
2019-03-24T11:36:56.829Z,2588.00
2019-03-24T11:37:56.700Z,2580.00
2019-03-24T11:38:59.018Z,2552.00
2019-03-24T11:39:56.613Z,2524.00
2019-03-24T11:40:56.522Z,2476.00
2019-03-24T11:41:56.469Z,2464.00
2019-03-24T11:42:56.421Z,2464.00
2019-03-24T11:43:56.307Z,2488.00
2019-03-24T11:44:56.358Z,2464.00
2019-03-24T11:45:56.172Z,2524.00
2019-03-24T11:46:56.051Z,2592.00
2019-03-24T11:47:56.000Z,2580.00
2019-03-24T11:48:55.879Z,2572.00
2019-03-24T11:49:55.998Z,2528.00
2019-03-24T11:50:55.786Z,2464.00
2019-03-24T11:51:55.713Z,2456.00
2019-03-24T11:52:55.730Z,2416.00
2019-03-24T11:53:55.584Z,2396.00
2019-03-24T11:54:55.504Z,2376.00
2019-03-24T11:55:55.495Z,2400.00
2019-03-24T11:56:55.308Z,2408.00
2019-03-24T11:58:05.366Z,2428.00
2019-03-24T11:58:55.237Z,2396.00
2019-03-24T11:59:55.173Z,2396.00
2019-03-24T12:00:55.072Z,2444.00
2019-03-24T12:01:55.052Z,2428.00
2019-03-24T12:02:54.886Z,2436.00
2019-03-24T12:03:54.825Z,2480.00
2019-03-24T12:04:54.750Z,2500.00
2019-03-24T12:05:54.738Z,2472.00
2019-03-24T12:06:54.628Z,2412.00
2019-03-24T12:07:54.598Z,2336.00
2019-03-24T12:08:54.459Z,2216.00
2019-03-24T12:09:54.394Z,2328.00
2019-03-24T12:10:54.355Z,2404.00
2019-03-24T12:11:54.251Z,2380.00
2019-03-24T12:12:54.235Z,2396.00
2019-03-24T12:13:54.184Z,2388.00
2019-03-24T12:14:54.064Z,2356.00
2019-03-24T12:15:54.084Z,2312.00
2019-03-24T12:16:53.884Z,2296.00
2019-03-24T12:17:53.819Z,2320.00
2019-03-24T12:18:53.730Z,2416.00
2019-03-24T12:19:56.905Z,2440.00
2019-03-24T12:20:53.545Z,2400.00
2019-03-24T12:21:53.481Z,2360.00
2019-03-24T12:22:53.505Z,2312.00
2019-03-24T12:23:53.381Z,2288.00
2019-03-24T12:24:53.306Z,2260.00
2019-03-24T12:25:53.329Z,2232.00
2019-03-24T12:26:53.241Z,2208.00
2019-03-24T12:27:53.046Z,2228.00
2019-03-24T12:28:53.044Z,2308.00
2019-03-24T12:29:53.004Z,2288.00
2019-03-24T12:30:52.869Z,2132.00
2019-03-24T12:31:52.783Z,2112.00
2019-03-24T12:32:52.720Z,2188.00
2019-03-24T12:33:52.666Z,2276.00
2019-03-24T12:34:52.589Z,2372.00
2019-03-24T12:35:52.461Z,2376.00
2019-03-24T12:36:52.461Z,2348.00
2019-03-24T12:37:52.322Z,2336.00
2019-03-24T12:38:52.282Z,2332.00
2019-03-24T12:39:52.258Z,2320.00
2019-03-24T12:40:52.211Z,2216.00
2019-03-24T12:41:52.157Z,2192.00
2019-03-24T12:42:52.010Z,2184.00
2019-03-24T12:43:51.966Z,2216.00
2019-03-24T12:44:51.804Z,2060.00
2019-03-24T12:45:51.838Z,2144.00
2019-03-24T12:46:51.730Z,2092.00
2019-03-24T12:47:51.605Z,2032.00
2019-03-24T12:48:51.625Z,1960.00
2019-03-24T12:49:51.477Z,1488.00
2019-03-24T12:50:51.429Z,1860.00
2019-03-24T12:51:51.343Z,1916.00
2019-03-24T12:52:51.255Z,2060.00
2019-03-24T12:53:51.176Z,2076.00
2019-03-24T12:54:51.175Z,2108.00
2019-03-24T12:55:51.098Z,2140.00
2019-03-24T12:56:50.952Z,2160.00
2019-03-24T12:57:50.862Z,2100.00
2019-03-24T12:58:50.836Z,2012.00
2019-03-24T12:59:50.871Z,1864.00
2019-03-24T13:00:50.692Z,1720.00
2019-03-24T13:01:52.822Z,1276.00
2019-03-24T13:02:50.553Z,2020.00
2019-03-24T13:03:50.440Z,1924.00
2019-03-24T13:04:50.353Z,1996.00
2019-03-24T13:05:50.345Z,1996.00
2019-03-24T13:06:50.247Z,2020.00
2019-03-24T13:07:50.211Z,1964.00
2019-03-24T13:08:50.128Z,2076.00
2019-03-24T13:09:50.121Z,2044.00
2019-03-24T13:10:49.962Z,2020.00
2019-03-24T13:11:49.913Z,2048.00
2019-03-24T13:12:49.782Z,2088.00
2019-03-24T13:13:49.755Z,1936.00
2019-03-24T13:14:49.678Z,1144.00
2019-03-24T13:15:49.607Z,1536.00
2019-03-24T13:16:49.493Z,1320.00
2019-03-24T13:17:49.501Z,1244.00
2019-03-24T13:18:49.366Z,1048.00
2019-03-24T13:19:49.302Z,956.00
2019-03-24T13:20:49.266Z,908.00
2019-03-24T13:21:49.152Z,972.00
2019-03-24T13:22:49.096Z,1344.00
2019-03-24T13:23:49.079Z,1616.00
2019-03-24T13:24:48.939Z,1952.00
2019-03-24T13:25:50.524Z,2036.00
2019-03-24T13:26:48.805Z,2124.00
2019-03-24T13:27:48.725Z,2012.00
2019-03-24T13:28:48.661Z,2016.00
2019-03-24T13:29:48.584Z,1808.00
2019-03-24T13:30:48.539Z,1368.00
2019-03-24T13:31:49.007Z,1776.00
2019-03-24T13:32:48.325Z,1984.00
2019-03-24T13:33:48.302Z,1980.00
2019-03-24T13:34:48.318Z,1896.00
2019-03-24T13:35:48.202Z,1228.00
2019-03-24T13:36:48.100Z,1140.00
2019-03-24T13:37:48.081Z,1148.00
2019-03-24T13:38:47.901Z,1128.00
2019-03-24T13:39:47.943Z,1204.00
2019-03-24T13:40:47.857Z,1796.00
2019-03-24T13:41:47.677Z,1796.00
2019-03-24T13:42:47.675Z,1808.00
2019-03-24T13:43:47.557Z,1980.00
2019-03-24T13:44:47.517Z,1892.00
2019-03-24T13:45:47.380Z,1240.00
2019-03-24T13:46:47.363Z,904.00
2019-03-24T13:47:47.265Z,776.00
2019-03-24T13:48:47.218Z,692.00
2019-03-24T13:49:47.134Z,672.00
2019-03-24T13:50:47.131Z,680.00
2019-03-24T13:51:47.036Z,684.00
2019-03-24T13:52:46.925Z,612.00
2019-03-24T13:53:46.827Z,596.00
2019-03-24T13:54:46.766Z,708.00
2019-03-24T13:55:46.655Z,752.00
2019-03-24T13:56:46.612Z,720.00
2019-03-24T13:57:46.614Z,720.00
2019-03-24T13:58:46.466Z,920.00
2019-03-24T13:59:46.419Z,872.00
2019-03-24T14:00:46.337Z,1020.00
2019-03-24T14:01:46.251Z,904.00
2019-03-24T14:02:46.131Z,812.00
2019-03-24T14:03:46.118Z,688.00
2019-03-24T14:04:47.535Z,668.00
2019-03-24T14:05:45.983Z,640.00
2019-03-24T14:06:45.879Z,608.00
2019-03-24T14:07:45.898Z,652.00
2019-03-24T14:08:45.732Z,840.00
2019-03-24T14:09:45.721Z,928.00
2019-03-24T14:10:45.616Z,928.00
2019-03-24T14:11:45.557Z,1144.00
2019-03-24T14:12:45.481Z,1016.00
2019-03-24T14:13:45.421Z,960.00
2019-03-24T14:14:45.302Z,972.00
2019-03-24T14:15:45.299Z,1060.00
2019-03-24T14:16:46.567Z,1328.00
2019-03-24T14:17:45.053Z,1408.00
2019-03-24T14:18:45.010Z,1132.00
2019-03-24T14:19:44.872Z,1232.00
2019-03-24T14:20:44.847Z,1592.00
2019-03-24T14:21:44.809Z,1508.00
2019-03-24T14:22:44.748Z,1508.00
2019-03-24T14:23:44.651Z,1520.00
2019-03-24T14:24:44.558Z,1540.00
2019-03-24T14:25:44.469Z,1572.00
2019-03-24T14:26:44.427Z,1556.00
2019-03-24T14:27:44.371Z,1476.00
2019-03-24T14:28:44.210Z,1356.00
2019-03-24T14:29:44.149Z,1040.00
2019-03-24T14:30:44.149Z,1048.00
2019-03-24T14:31:44.040Z,1372.00
2019-03-24T14:32:44.013Z,1476.00
2019-03-24T14:33:43.914Z,1540.00
2019-03-24T14:34:43.918Z,1532.00
2019-03-24T14:35:43.839Z,1572.00
2019-03-24T14:36:43.675Z,1616.00
2019-03-24T14:37:43.649Z,1592.00
2019-03-24T14:38:43.532Z,1580.00
2019-03-24T14:39:43.587Z,1460.00
2019-03-24T14:40:43.388Z,1264.00
2019-03-24T14:41:43.300Z,924.00
2019-03-24T14:42:43.187Z,868.00
2019-03-24T14:43:43.204Z,852.00
2019-03-24T14:44:43.112Z,1032.00
2019-03-24T14:45:43.031Z,868.00
2019-03-24T14:46:43.000Z,836.00
2019-03-24T14:47:42.899Z,780.00
2019-03-24T14:48:42.807Z,812.00
2019-03-24T14:49:42.695Z,828.00
2019-03-24T14:50:53.637Z,736.00
2019-03-24T14:51:42.579Z,728.00
2019-03-24T14:52:42.460Z,880.00
2019-03-24T14:53:42.424Z,828.00
2019-03-24T14:54:42.405Z,932.00
2019-03-24T14:55:42.215Z,1020.00
2019-03-24T14:56:42.238Z,828.00
2019-03-24T14:57:42.099Z,784.00
2019-03-24T14:58:42.001Z,944.00
2019-03-24T14:59:41.915Z,960.00
2019-03-24T15:00:41.859Z,996.00
2019-03-24T15:01:41.775Z,1020.00
2019-03-24T15:02:41.743Z,1056.00
2019-03-24T15:03:41.670Z,1112.00
2019-03-24T15:04:41.561Z,1160.00
2019-03-24T15:05:41.478Z,1148.00
2019-03-24T15:06:41.408Z,1116.00
2019-03-24T15:07:41.323Z,1100.00
2019-03-24T15:08:41.249Z,1068.00
2019-03-24T15:09:41.219Z,912.00
2019-03-24T15:10:41.189Z,876.00
2019-03-24T15:11:41.033Z,640.00
2019-03-24T15:12:40.960Z,596.00
2019-03-24T15:13:40.956Z,588.00
2019-03-24T15:14:40.815Z,568.00
2019-03-24T15:15:40.775Z,812.00
2019-03-24T15:16:40.674Z,992.00
2019-03-24T15:17:40.590Z,1124.00
2019-03-24T15:18:40.562Z,1204.00
2019-03-24T15:19:40.435Z,1220.00
2019-03-24T15:20:40.462Z,1196.00
2019-03-24T15:21:40.296Z,1140.00
2019-03-24T15:22:40.255Z,1096.00
2019-03-24T15:23:40.138Z,1088.00
2019-03-24T15:24:40.125Z,1076.00
2019-03-24T15:25:40.034Z,1076.00
2019-03-24T15:26:39.923Z,1072.00
2019-03-24T15:27:39.879Z,1088.00
2019-03-24T15:28:39.769Z,1092.00
2019-03-24T15:29:39.764Z,1044.00
2019-03-24T15:30:39.658Z,1000.00
2019-03-24T15:31:39.544Z,1012.00
2019-03-24T15:32:39.471Z,988.00
2019-03-24T15:33:39.395Z,956.00
2019-03-24T15:34:39.331Z,940.00
2019-03-24T15:35:39.246Z,908.00
2019-03-24T15:36:39.181Z,856.00
2019-03-24T15:37:39.180Z,864.00
2019-03-24T15:38:39.038Z,860.00
2019-03-24T15:39:38.998Z,860.00
2019-03-24T15:40:38.928Z,868.00
2019-03-24T15:41:38.861Z,864.00
2019-03-24T15:42:38.775Z,848.00
2019-03-24T15:43:41.047Z,836.00
2019-03-24T15:44:38.614Z,808.00
2019-03-24T15:45:38.502Z,808.00
2019-03-24T15:46:38.425Z,800.00
2019-03-24T15:47:38.395Z,772.00
2019-03-24T15:48:38.277Z,748.00
2019-03-24T15:49:38.204Z,716.00
2019-03-24T15:50:38.128Z,728.00
2019-03-24T15:51:38.130Z,724.00
2019-03-24T15:52:37.992Z,712.00
2019-03-24T15:53:37.908Z,700.00
2019-03-24T15:54:37.885Z,676.00
2019-03-24T15:55:37.757Z,664.00
2019-03-24T15:56:37.693Z,664.00
2019-03-24T15:57:37.622Z,640.00
2019-03-24T15:58:37.560Z,636.00
2019-03-24T15:59:37.467Z,628.00
2019-03-24T16:00:37.391Z,624.00
2019-03-24T16:01:37.355Z,612.00
2019-03-24T16:02:37.256Z,604.00
2019-03-24T16:03:37.188Z,600.00
2019-03-24T16:04:37.094Z,588.00
2019-03-24T16:05:37.018Z,568.00
2019-03-24T16:06:36.992Z,552.00
2019-03-24T16:07:36.860Z,536.00
2019-03-24T16:08:36.796Z,516.00
2019-03-24T16:09:36.708Z,516.00
2019-03-24T16:10:36.688Z,496.00
2019-03-24T16:11:36.580Z,484.00
2019-03-24T16:12:36.481Z,488.00
2019-03-24T16:13:36.413Z,480.00
2019-03-24T16:14:36.381Z,488.00
2019-03-24T16:15:36.318Z,488.00
2019-03-24T16:16:36.212Z,476.00
2019-03-24T16:17:36.158Z,468.00
2019-03-24T16:18:36.035Z,456.00
2019-03-24T16:19:36.004Z,436.00
2019-03-24T16:20:35.947Z,416.00
2019-03-24T16:21:35.938Z,388.00
2019-03-24T16:22:35.738Z,364.00
2019-03-24T16:23:35.658Z,356.00
2019-03-24T16:24:35.582Z,344.00
2019-03-24T16:25:35.562Z,332.00
2019-03-24T16:26:35.428Z,324.00
2019-03-24T16:27:35.396Z,320.00
2019-03-24T16:28:35.315Z,316.00
2019-03-24T16:29:35.208Z,312.00
2019-03-24T16:30:35.125Z,300.00
2019-03-24T16:31:35.049Z,284.00
2019-03-24T16:32:34.994Z,276.00
2019-03-24T16:33:34.997Z,260.00
2019-03-24T16:34:34.826Z,252.00
2019-03-24T16:35:34.796Z,240.00
2019-03-24T16:36:34.678Z,236.00
2019-03-24T16:37:34.649Z,228.00
2019-03-24T16:38:34.528Z,224.00
2019-03-24T16:39:34.447Z,220.00
2019-03-24T16:40:34.427Z,212.00
2019-03-24T16:41:34.301Z,208.00
2019-03-24T16:42:34.223Z,200.00
2019-03-24T16:43:34.230Z,196.00
2019-03-24T16:44:34.071Z,192.00
2019-03-24T16:45:33.992Z,188.00
2019-03-24T16:46:33.913Z,184.00
2019-03-24T16:47:33.892Z,180.00
2019-03-24T16:48:37.086Z,176.00
2019-03-24T16:49:33.692Z,164.00
2019-03-24T16:50:33.613Z,156.00
2019-03-24T16:51:38.482Z,148.00
2019-03-24T16:52:33.474Z,140.00
2019-03-24T16:53:33.419Z,136.00
2019-03-24T16:54:33.307Z,132.00
2019-03-24T16:55:33.246Z,124.00
2019-03-24T16:56:33.175Z,120.00
2019-03-24T16:57:33.086Z,116.00
2019-03-24T16:58:33.009Z,108.00
2019-03-24T16:59:32.929Z,104.00
2019-03-24T17:00:32.842Z,100.00
2019-03-24T17:01:32.766Z,96.00
2019-03-24T17:02:32.698Z,92.00
2019-03-24T17:03:32.620Z,88.00
2019-03-24T17:04:32.569Z,84.00
2019-03-24T17:05:32.465Z,84.00
2019-03-24T17:06:32.397Z,80.00
2019-03-24T17:07:32.379Z,76.00
2019-03-24T17:08:32.285Z,72.00
2019-03-24T17:09:32.177Z,68.00
2019-03-24T17:10:32.080Z,64.00
2019-03-24T17:11:32.002Z,60.00
2019-03-24T17:12:31.931Z,56.00
2019-03-24T17:13:31.887Z,52.00
2019-03-24T17:14:31.833Z,48.00
2019-03-24T17:15:31.707Z,44.00
2019-03-24T17:16:31.637Z,44.00
2019-03-24T17:17:31.636Z,40.00
2019-03-24T17:18:31.513Z,36.00
2019-03-24T17:19:31.421Z,36.00
2019-03-24T17:20:31.313Z,32.00
2019-03-24T17:21:31.251Z,28.00
2019-03-24T17:22:31.220Z,28.00
2019-03-24T17:23:31.154Z,28.00
2019-03-24T17:24:31.107Z,24.00
2019-03-24T17:25:30.938Z,24.00
2019-03-24T17:26:30.910Z,20.00
2019-03-24T17:27:30.781Z,20.00
2019-03-24T17:28:30.710Z,16.00
2019-03-24T17:29:30.647Z,16.00
2019-03-24T17:30:30.563Z,12.00
2019-03-24T17:31:30.502Z,12.00
2019-03-24T17:32:30.401Z,12.00
2019-03-24T17:33:30.326Z,8.00
2019-03-24T17:34:30.298Z,12.00
2019-03-24T17:35:30.186Z,12.00
2019-03-24T17:36:30.143Z,8.00
2019-03-24T17:37:30.135Z,8.00
2019-03-24T17:38:29.944Z,4.00
2019-03-24T17:39:29.867Z,4.00
2019-03-24T17:40:29.797Z,4.00
2019-03-24T17:41:29.714Z,4.00
2019-03-24T17:42:29.624Z,4.00
2019-03-24T17:43:29.593Z,4.00
2019-03-24T17:44:29.476Z,4.00
2019-03-24T17:45:29.396Z,4.00
2019-03-24T17:46:29.322Z,4.00
2019-03-24T17:47:29.250Z,0.00
2019-03-24T17:48:29.175Z,4.00
2019-03-24T17:49:29.139Z,0.00
2019-03-24T17:50:29.055Z,4.00
2019-03-24T17:51:28.942Z,0.00
2019-03-24T17:52:28.911Z,0.00
2019-03-24T17:53:28.829Z,0.00
2019-03-24T17:54:28.705Z,0.00
2019-03-24T17:55:30.955Z,0.00
2019-03-24T17:56:28.563Z,0.00
2019-03-24T17:57:28.479Z,0.00
2019-03-24T17:58:28.793Z,0.00
2019-03-24T18:23:54.506Z,0.00
2019-03-24T19:14:00.185Z,0.00
2019-03-24T19:14:55.296Z,0.00
2019-03-24T19:15:54.234Z,0.00
2019-03-24T19:16:54.071Z,0.00
2019-03-24T19:18:53.259Z,0.00
2019-03-24T19:20:56.285Z,0.00
2019-03-24T19:21:50.487Z,0.00
2019-03-24T19:22:55.583Z,0.00
2019-03-24T19:24:52.669Z,0.00
2019-03-24T19:25:50.103Z,0.00
2019-03-24T19:26:49.993Z,0.00
2019-03-24T19:27:49.845Z,0.00
2019-03-24T19:28:49.764Z,0.00
2019-03-24T19:29:49.659Z,0.00
2019-03-24T19:30:49.654Z,0.00
2019-03-24T19:31:49.524Z,0.00
2019-03-24T19:32:49.487Z,0.00
2019-03-24T19:33:49.432Z,0.00
2019-03-24T19:34:49.332Z,0.00
2019-03-24T19:35:49.197Z,0.00
2019-03-24T19:36:49.211Z,0.00
2019-03-24T19:37:49.033Z,0.00
2019-03-24T19:38:48.954Z,0.00
2019-03-24T19:39:48.885Z,0.00
2019-03-24T19:40:48.832Z,0.00
2019-03-24T19:41:48.708Z,0.00
2019-03-24T19:42:48.638Z,0.00
2019-03-24T19:43:48.600Z,0.00
2019-03-24T19:44:48.492Z,0.00
2019-03-24T19:45:48.407Z,0.00
2019-03-24T19:46:48.410Z,0.00
2019-03-24T19:47:48.260Z,0.00
2019-03-24T19:48:48.214Z,0.00
2019-03-24T19:49:48.081Z,0.00
2019-03-24T19:50:48.016Z,0.00
2019-03-24T19:51:47.994Z,0.00
2019-03-24T19:52:47.895Z,0.00
2019-03-24T19:53:47.838Z,0.00
2019-03-24T19:54:47.694Z,0.00
2019-03-24T19:55:47.615Z,0.00
2019-03-24T19:56:47.535Z,0.00
2019-03-24T19:57:47.528Z,0.00
2019-03-24T19:58:47.373Z,0.00
2019-03-24T19:59:47.345Z,0.00
2019-03-24T20:00:47.295Z,0.00
2019-03-24T20:01:47.195Z,0.00
2019-03-24T20:02:47.075Z,0.00
2019-03-24T20:03:46.994Z,0.00
2019-03-24T20:04:46.964Z,0.00
2019-03-24T20:05:46.887Z,0.00
2019-03-24T20:06:46.759Z,0.00
2019-03-24T20:07:48.221Z,0.00
2019-03-24T20:08:46.633Z,0.00
2019-03-24T20:09:46.512Z,0.00
2019-03-24T20:10:46.442Z,0.00
2019-03-24T20:11:46.465Z,0.00
2019-03-24T20:12:46.299Z,0.00
2019-03-24T20:13:46.218Z,0.00
2019-03-24T20:14:46.127Z,0.00
2019-03-24T20:15:46.062Z,0.00
2019-03-24T20:16:45.965Z,0.00
2019-03-24T20:17:45.950Z,0.00
2019-03-24T20:18:45.851Z,0.00
2019-03-24T20:19:45.804Z,0.00
2019-03-24T20:20:45.768Z,0.00
2019-03-24T20:21:45.635Z,0.00
2019-03-24T20:22:55.947Z,0.00
2019-03-24T20:23:45.429Z,0.00
2019-03-24T20:24:45.350Z,0.00
2019-03-24T20:25:45.314Z,0.00
2019-03-24T20:26:45.240Z,0.00
2019-03-24T20:27:45.142Z,0.00
2019-03-24T20:28:45.076Z,0.00
2019-03-24T20:29:44.949Z,0.00
2019-03-24T20:30:44.867Z,0.00
2019-03-24T20:31:44.870Z,0.00
2019-03-24T20:32:44.762Z,0.00
2019-03-24T20:33:44.679Z,0.00
2019-03-24T20:34:44.604Z,0.00
2019-03-24T20:35:44.483Z,0.00
2019-03-24T20:36:44.394Z,0.00
2019-03-24T20:37:44.316Z,0.00
2019-03-24T20:38:44.307Z,0.00
2019-03-24T20:39:44.281Z,0.00
2019-03-24T20:40:44.078Z,0.00
2019-03-24T20:41:44.003Z,0.00
2019-03-24T20:42:43.951Z,0.00
2019-03-24T20:43:43.910Z,0.00
2019-03-24T20:44:43.772Z,0.00
2019-03-24T20:45:43.738Z,0.00
2019-03-24T20:46:43.661Z,0.00
2019-03-24T20:47:43.567Z,0.00
2019-03-24T20:48:43.553Z,0.00
2019-03-24T20:49:43.388Z,0.00
2019-03-24T20:50:43.365Z,0.00
2019-03-24T20:51:43.224Z,0.00
2019-03-24T20:52:43.199Z,0.00
2019-03-24T20:53:43.099Z,0.00
2019-03-24T20:54:43.086Z,0.00
2019-03-24T20:55:42.957Z,0.00
2019-03-24T20:56:42.836Z,0.00
2019-03-24T20:57:42.747Z,0.00
2019-03-24T20:58:42.685Z,0.00
2019-03-24T20:59:42.623Z,0.00
2019-03-24T21:00:42.561Z,0.00
2019-03-24T21:01:42.430Z,0.00
2019-03-24T21:02:42.367Z,0.00
2019-03-24T21:03:42.279Z,0.00
2019-03-24T21:04:42.199Z,0.00
2019-03-24T21:05:42.118Z,0.00
2019-03-24T21:06:42.038Z,0.00
2019-03-24T21:07:41.954Z,0.00
2019-03-24T21:08:41.954Z,0.00
2019-03-24T21:09:41.804Z,0.00
2019-03-24T21:10:41.718Z,0.00
2019-03-24T21:11:41.650Z,0.00
2019-03-24T21:12:41.561Z,0.00
2019-03-24T21:13:41.487Z,0.00
2019-03-24T21:14:41.469Z,0.00
2019-03-24T21:15:41.325Z,0.00
2019-03-24T21:16:41.245Z,0.00
2019-03-24T21:17:41.173Z,0.00
2019-03-24T21:18:41.118Z,0.00
2019-03-24T21:19:41.048Z,0.00
2019-03-24T21:20:40.940Z,0.00
2019-03-24T21:21:40.849Z,0.00
2019-03-24T21:22:40.862Z,0.00
2019-03-24T21:23:40.779Z,0.00
2019-03-24T21:24:40.617Z,0.00
2019-03-24T21:25:40.609Z,0.00
2019-03-24T21:26:40.582Z,0.00
2019-03-24T21:27:40.415Z,0.00
2019-03-24T21:28:40.297Z,0.00
2019-03-24T21:29:40.292Z,0.00
2019-03-24T21:30:40.187Z,0.00
2019-03-24T21:31:40.161Z,0.00
2019-03-24T21:32:40.067Z,0.00
2019-03-24T21:33:39.930Z,0.00
2019-03-24T21:34:39.890Z,0.00
2019-03-24T21:35:39.758Z,0.00
2019-03-24T21:36:39.750Z,0.00
2019-03-24T21:37:39.616Z,0.00
2019-03-24T21:38:39.573Z,0.00
2019-03-24T21:39:39.459Z,0.00
2019-03-24T21:40:39.353Z,0.00
2019-03-24T21:41:39.314Z,0.00
2019-03-24T21:42:39.227Z,0.00
2019-03-24T21:43:39.168Z,0.00
2019-03-24T21:44:39.046Z,0.00
2019-03-24T21:45:38.984Z,0.00
2019-03-24T21:46:38.871Z,0.00
2019-03-24T21:47:38.811Z,0.00
2019-03-24T21:48:38.715Z,0.00
2019-03-24T21:49:38.674Z,0.00
2019-03-24T21:50:38.615Z,0.00
2019-03-24T21:51:38.574Z,0.00
2019-03-24T21:52:38.441Z,0.00
2019-03-24T21:53:40.808Z,0.00
2019-03-24T21:54:38.292Z,0.00
2019-03-24T21:55:38.190Z,0.00
2019-03-24T21:56:38.164Z,0.00
2019-03-24T21:57:38.063Z,0.00
2019-03-24T21:58:37.993Z,0.00
2019-03-24T21:59:38.043Z,0.00
2019-03-24T22:00:37.866Z,0.00
2019-03-24T22:01:37.746Z,0.00
2019-03-24T22:02:37.677Z,0.00
2019-03-24T22:03:37.575Z,0.00
2019-03-24T22:04:37.527Z,0.00
2019-03-24T22:05:37.436Z,0.00
2019-03-24T22:06:37.363Z,0.00
2019-03-24T22:07:37.260Z,0.00
2019-03-24T22:08:37.185Z,0.00
2019-03-24T22:09:37.194Z,0.00
2019-03-24T22:10:37.058Z,0.00
2019-03-24T22:11:36.937Z,0.00
2019-03-24T22:12:36.879Z,0.00
2019-03-24T22:13:36.740Z,0.00
2019-03-24T22:14:36.660Z,0.00
2019-03-24T22:15:36.598Z,0.00
2019-03-24T22:16:36.592Z,0.00
2019-03-24T22:17:36.421Z,0.00
2019-03-24T22:18:36.334Z,0.00
2019-03-24T22:19:38.633Z,0.00
2019-03-24T22:20:36.188Z,0.00
2019-03-24T22:21:36.093Z,0.00
2019-03-24T22:22:36.014Z,0.00
2019-03-24T22:23:35.946Z,0.00
2019-03-24T22:24:35.912Z,0.00
2019-03-24T22:25:35.837Z,0.00
2019-03-24T22:26:35.729Z,0.00
2019-03-24T22:27:35.629Z,0.00
2019-03-24T22:28:35.545Z,0.00
2019-03-24T22:29:35.484Z,0.00
2019-03-24T22:30:35.469Z,0.00
2019-03-24T22:31:35.302Z,0.00
2019-03-24T22:32:35.217Z,0.00
2019-03-24T22:33:35.148Z,0.00
2019-03-24T22:34:35.058Z,0.00
2019-03-24T22:35:34.978Z,0.00
2019-03-24T22:36:34.900Z,0.00
2019-03-24T22:37:34.826Z,0.00
2019-03-24T22:38:34.756Z,0.00
2019-03-24T22:39:34.676Z,0.00
2019-03-24T22:40:34.617Z,0.00
2019-03-24T22:41:34.603Z,0.00
2019-03-24T22:42:34.440Z,0.00
2019-03-24T22:43:34.342Z,0.00
2019-03-24T22:44:34.269Z,0.00
2019-03-24T22:45:34.187Z,0.00
2019-03-24T22:46:34.111Z,0.00
2019-03-24T22:47:34.033Z,0.00
2019-03-24T22:48:34.038Z,0.00
2019-03-24T22:49:33.877Z,0.00
2019-03-24T22:50:33.871Z,0.00
2019-03-24T22:51:33.767Z,0.00
2019-03-24T22:52:33.639Z,0.00
2019-03-24T22:53:33.571Z,0.00
2019-03-24T22:54:33.527Z,0.00
2019-03-24T22:55:33.407Z,0.00
2019-03-24T22:56:33.347Z,0.00
2019-03-24T22:57:33.305Z,0.00
2019-03-24T22:58:33.158Z,0.00
2019-03-24T22:59:33.083Z,0.00
2019-03-24T23:00:33.028Z,0.00
2019-03-24T23:01:32.926Z,0.00
2019-03-24T23:02:32.902Z,0.00
2019-03-24T23:03:32.823Z,0.00
2019-03-24T23:04:32.695Z,0.00
2019-03-24T23:05:32.661Z,0.00
2019-03-24T23:06:32.549Z,0.00
2019-03-24T23:07:32.490Z,0.00
2019-03-24T23:08:32.369Z,0.00
2019-03-24T23:09:32.311Z,0.00
2019-03-24T23:10:32.260Z,0.00
2019-03-24T23:11:32.176Z,0.00
2019-03-24T23:12:32.054Z,0.00
2019-03-24T23:13:32.027Z,0.00
2019-03-24T23:14:31.940Z,0.00
2019-03-24T23:15:31.862Z,0.00
2019-03-24T23:16:31.741Z,0.00
2019-03-24T23:17:31.696Z,0.00
2019-03-24T23:18:31.674Z,0.00
2019-03-24T23:19:31.549Z,0.00
2019-03-24T23:20:31.457Z,0.00
2019-03-24T23:21:31.383Z,0.00
2019-03-24T23:22:31.361Z,0.00
2019-03-24T23:23:31.177Z,0.00
2019-03-24T23:24:31.101Z,0.00
2019-03-24T23:25:31.059Z,0.00
2019-03-24T23:26:31.003Z,0.00
2019-03-24T23:27:30.975Z,0.00
2019-03-24T23:28:30.803Z,0.00
2019-03-24T23:29:30.765Z,0.00
2019-03-24T23:30:30.659Z,0.00
2019-03-24T23:31:30.612Z,0.00
2019-03-24T23:32:30.535Z,0.00
2019-03-24T23:33:30.454Z,0.00
2019-03-24T23:34:30.361Z,0.00
2019-03-24T23:35:30.246Z,0.00
2019-03-24T23:36:30.154Z,0.00
2019-03-24T23:37:30.074Z,0.00
2019-03-24T23:38:30.011Z,0.00
2019-03-24T23:39:29.960Z,0.00
2019-03-24T23:40:29.847Z,0.00
2019-03-24T23:41:29.809Z,0.00
2019-03-24T23:42:29.701Z,0.00
2019-03-24T23:43:29.634Z,0.00
2019-03-24T23:44:29.625Z,0.00
2019-03-24T23:45:29.539Z,0.00
2019-03-24T23:46:29.506Z,0.00
2019-03-24T23:47:29.354Z,0.00
2019-03-24T23:48:29.201Z,0.00
2019-03-24T23:49:29.162Z,0.00
2019-03-24T23:50:29.072Z,0.00
2019-03-24T23:51:28.963Z,0.00
2019-03-24T23:52:28.882Z,0.00
2019-03-24T23:53:28.836Z,0.00
2019-03-24T23:54:28.729Z,0.00
2019-03-24T23:55:28.714Z,0.00
2019-03-24T23:56:28.594Z,0.00
2019-03-24T23:57:28.585Z,0.00
2019-03-24T23:58:40.215Z,0.00
2019-03-24T23:59:28.408Z,0.00
